sensor_id;sensor_type;location;lat;lon;timestamp;P1;durP1;ratioP1;P2;durP2;ratioP2
67130;SDS011;54051;53.464;49.532;2022-08-21T00:01:09;9.13;;;5.73;;
67130;SDS011;54051;53.464;49.532;2022-08-21T00:03:38;11.35;;;5.90;;
67130;SDS011;54051;53.464;49.532;2022-08-21T00:06:04;10.77;;;6.40;;
67130;SDS011;54051;53.464;49.532;2022-08-21T00:08:30;11.37;;;6.10;;
67130;SDS011;54051;53.464;49.532;2022-08-21T00:10:56;10.90;;;6.30;;
67130;SDS011;54051;53.464;49.532;2022-08-21T00:13:23;12.10;;;6.43;;
67130;SDS011;54051;53.464;49.532;2022-08-21T00:15:49;11.07;;;6.53;;
67130;SDS011;54051;53.464;49.532;2022-08-21T00:18:15;11.90;;;6.60;;
67130;SDS011;54051;53.464;49.532;2022-08-21T00:20:42;13.93;;;7.03;;
67130;SDS011;54051;53.464;49.532;2022-08-21T00:23:10;10.98;;;6.90;;
67130;SDS011;54051;53.464;49.532;2022-08-21T00:25:37;13.18;;;6.90;;
67130;SDS011;54051;53.464;49.532;2022-08-21T00:28:04;11.32;;;6.93;;
67130;SDS011;54051;53.464;49.532;2022-08-21T00:30:32;11.48;;;6.68;;
67130;SDS011;54051;53.464;49.532;2022-08-21T00:32:59;10.88;;;6.57;;
67130;SDS011;54051;53.464;49.532;2022-08-21T00:35:30;14.50;;;6.82;;
67130;SDS011;54051;53.464;49.532;2022-08-21T00:37:58;10.93;;;6.60;;
67130;SDS011;54051;53.464;49.532;2022-08-21T00:40:27;11.07;;;6.78;;
67130;SDS011;54051;53.464;49.532;2022-08-21T00:43:06;12.57;;;6.95;;
67130;SDS011;54051;53.464;49.532;2022-08-21T00:45:34;10.48;;;6.55;;
67130;SDS011;54051;53.464;49.532;2022-08-21T00:48:01;9.95;;;6.50;;
67130;SDS011;54051;53.464;49.532;2022-08-21T00:50:28;13.60;;;6.50;;
67130;SDS011;54051;53.464;49.532;2022-08-21T00:52:57;10.90;;;6.57;;
67130;SDS011;54051;53.464;49.532;2022-08-21T00:55:25;11.88;;;6.03;;
67130;SDS011;54051;53.464;49.532;2022-08-21T00:57:53;9.88;;;6.10;;
67130;SDS011;54051;53.464;49.532;2022-08-21T01:00:24;10.30;;;6.20;;
67130;SDS011;54051;53.464;49.532;2022-08-21T01:02:55;10.10;;;6.10;;
67130;SDS011;54051;53.464;49.532;2022-08-21T01:05:21;10.50;;;6.30;;
67130;SDS011;54051;53.464;49.532;2022-08-21T01:07:48;11.93;;;5.90;;
67130;SDS011;54051;53.464;49.532;2022-08-21T01:10:14;11.00;;;6.30;;
67130;SDS011;54051;53.464;49.532;2022-08-21T01:12:40;12.77;;;6.57;;
67130;SDS011;54051;53.464;49.532;2022-08-21T01:15:07;11.90;;;6.45;;
67130;SDS011;54051;53.464;49.532;2022-08-21T01:17:34;10.40;;;5.80;;
67130;SDS011;54051;53.464;49.532;2022-08-21T01:22:30;10.27;;;5.70;;
67130;SDS011;54051;53.464;49.532;2022-08-21T01:24:56;10.85;;;6.00;;
67130;SDS011;54051;53.464;49.532;2022-08-21T01:27:22;11.03;;;6.00;;
67130;SDS011;54051;53.464;49.532;2022-08-21T01:29:53;10.77;;;6.13;;
67130;SDS011;54051;53.464;49.532;2022-08-21T01:32:22;9.75;;;6.05;;
67130;SDS011;54051;53.464;49.532;2022-08-21T01:34:50;11.18;;;5.82;;
67130;SDS011;54051;53.464;49.532;2022-08-21T01:37:17;11.13;;;5.82;;
67130;SDS011;54051;53.464;49.532;2022-08-21T01:39:45;12.75;;;6.50;;
67130;SDS011;54051;53.464;49.532;2022-08-21T01:42:11;11.25;;;6.30;;
67130;SDS011;54051;53.464;49.532;2022-08-21T01:44:38;13.32;;;6.80;;
67130;SDS011;54051;53.464;49.532;2022-08-21T01:47:04;12.45;;;6.82;;
67130;SDS011;54051;53.464;49.532;2022-08-21T01:49:34;10.02;;;5.95;;
67130;SDS011;54051;53.464;49.532;2022-08-21T01:52:00;11.07;;;6.13;;
67130;SDS011;54051;53.464;49.532;2022-08-21T01:54:27;12.03;;;5.73;;
67130;SDS011;54051;53.464;49.532;2022-08-21T01:56:53;11.52;;;5.70;;
67130;SDS011;54051;53.464;49.532;2022-08-21T01:59:20;11.82;;;6.03;;
67130;SDS011;54051;53.464;49.532;2022-08-21T02:01:48;9.35;;;5.75;;
67130;SDS011;54051;53.464;49.532;2022-08-21T02:04:14;11.13;;;5.97;;
67130;SDS011;54051;53.464;49.532;2022-08-21T02:06:41;10.38;;;6.10;;
67130;SDS011;54051;53.464;49.532;2022-08-21T02:09:07;10.93;;;5.65;;
67130;SDS011;54051;53.464;49.532;2022-08-21T02:11:35;11.25;;;5.93;;
67130;SDS011;54051;53.464;49.532;2022-08-21T02:14:12;10.27;;;5.80;;
67130;SDS011;54051;53.464;49.532;2022-08-21T02:16:40;10.65;;;6.00;;
67130;SDS011;54051;53.464;49.532;2022-08-21T02:19:08;10.35;;;6.03;;
67130;SDS011;54051;53.464;49.532;2022-08-21T02:21:35;12.13;;;6.00;;
67130;SDS011;54051;53.464;49.532;2022-08-21T02:24:01;12.27;;;6.47;;
67130;SDS011;54051;53.464;49.532;2022-08-21T02:26:28;12.40;;;5.85;;
67130;SDS011;54051;53.464;49.532;2022-08-21T02:28:54;13.43;;;6.30;;
67130;SDS011;54051;53.464;49.532;2022-08-21T02:31:20;11.23;;;6.40;;
67130;SDS011;54051;53.464;49.532;2022-08-21T02:33:46;11.30;;;6.30;;
67130;SDS011;54051;53.464;49.532;2022-08-21T02:36:12;10.85;;;6.13;;
67130;SDS011;54051;53.464;49.532;2022-08-21T02:38:38;13.13;;;6.07;;
67130;SDS011;54051;53.464;49.532;2022-08-21T02:41:07;12.35;;;6.50;;
67130;SDS011;54051;53.464;49.532;2022-08-21T02:43:35;11.20;;;6.20;;
67130;SDS011;54051;53.464;49.532;2022-08-21T02:46:03;11.25;;;6.20;;
67130;SDS011;54051;53.464;49.532;2022-08-21T02:48:31;10.93;;;6.00;;
67130;SDS011;54051;53.464;49.532;2022-08-21T02:51:00;10.77;;;5.65;;
67130;SDS011;54051;53.464;49.532;2022-08-21T02:53:29;11.98;;;5.75;;
67130;SDS011;54051;53.464;49.532;2022-08-21T02:55:56;10.65;;;5.93;;
67130;SDS011;54051;53.464;49.532;2022-08-21T02:58:25;9.63;;;5.30;;
67130;SDS011;54051;53.464;49.532;2022-08-21T03:00:53;11.32;;;5.82;;
67130;SDS011;54051;53.464;49.532;2022-08-21T03:03:20;11.43;;;5.78;;
67130;SDS011;54051;53.464;49.532;2022-08-21T03:05:46;8.68;;;5.45;;
67130;SDS011;54051;53.464;49.532;2022-08-21T03:08:13;12.20;;;6.03;;
67130;SDS011;54051;53.464;49.532;2022-08-21T03:10:42;9.95;;;5.60;;
67130;SDS011;54051;53.464;49.532;2022-08-21T03:13:10;10.02;;;5.65;;
67130;SDS011;54051;53.464;49.532;2022-08-21T03:15:37;9.02;;;5.65;;
67130;SDS011;54051;53.464;49.532;2022-08-21T03:18:03;9.00;;;5.43;;
67130;SDS011;54051;53.464;49.532;2022-08-21T03:20:31;8.65;;;5.20;;
67130;SDS011;54051;53.464;49.532;2022-08-21T03:22:58;9.63;;;5.35;;
67130;SDS011;54051;53.464;49.532;2022-08-21T03:25:25;10.05;;;5.20;;
67130;SDS011;54051;53.464;49.532;2022-08-21T03:27:52;10.02;;;5.32;;
67130;SDS011;54051;53.464;49.532;2022-08-21T03:30:20;10.90;;;5.50;;
67130;SDS011;54051;53.464;49.532;2022-08-21T03:32:47;8.50;;;5.00;;
67130;SDS011;54051;53.464;49.532;2022-08-21T03:35:14;8.63;;;4.95;;
67130;SDS011;54051;53.464;49.532;2022-08-21T03:37:40;8.90;;;5.20;;
67130;SDS011;54051;53.464;49.532;2022-08-21T03:40:07;7.80;;;5.13;;
67130;SDS011;54051;53.464;49.532;2022-08-21T03:42:34;8.07;;;5.18;;
67130;SDS011;54051;53.464;49.532;2022-08-21T03:47:26;10.80;;;4.97;;
67130;SDS011;54051;53.464;49.532;2022-08-21T03:49:52;12.27;;;5.18;;
67130;SDS011;54051;53.464;49.532;2022-08-21T03:52:19;8.00;;;5.00;;
67130;SDS011;54051;53.464;49.532;2022-08-21T03:54:45;8.93;;;4.97;;
67130;SDS011;54051;53.464;49.532;2022-08-21T03:59:37;9.40;;;5.18;;
67130;SDS011;54051;53.464;49.532;2022-08-21T04:02:05;9.52;;;5.13;;
67130;SDS011;54051;53.464;49.532;2022-08-21T04:04:32;7.95;;;4.82;;
67130;SDS011;54051;53.464;49.532;2022-08-21T04:06:58;9.60;;;5.13;;
67130;SDS011;54051;53.464;49.532;2022-08-21T04:09:25;7.85;;;5.35;;
67130;SDS011;54051;53.464;49.532;2022-08-21T04:11:52;10.00;;;5.30;;
67130;SDS011;54051;53.464;49.532;2022-08-21T04:14:18;10.05;;;5.30;;
67130;SDS011;54051;53.464;49.532;2022-08-21T04:16:44;8.57;;;5.47;;
67130;SDS011;54051;53.464;49.532;2022-08-21T04:19:11;12.43;;;5.30;;
67130;SDS011;54051;53.464;49.532;2022-08-21T04:21:38;7.63;;;5.15;;
67130;SDS011;54051;53.464;49.532;2022-08-21T04:24:05;9.27;;;5.35;;
67130;SDS011;54051;53.464;49.532;2022-08-21T04:26:33;10.90;;;5.70;;
67130;SDS011;54051;53.464;49.532;2022-08-21T04:29:00;8.15;;;5.32;;
67130;SDS011;54051;53.464;49.532;2022-08-21T04:31:26;12.13;;;5.35;;
67130;SDS011;54051;53.464;49.532;2022-08-21T04:33:54;8.38;;;4.80;;
67130;SDS011;54051;53.464;49.532;2022-08-21T04:36:20;9.23;;;5.20;;
67130;SDS011;54051;53.464;49.532;2022-08-21T04:38:46;10.25;;;5.15;;
67130;SDS011;54051;53.464;49.532;2022-08-21T04:41:12;7.10;;;4.80;;
67130;SDS011;54051;53.464;49.532;2022-08-21T04:43:39;8.57;;;5.10;;
67130;SDS011;54051;53.464;49.532;2022-08-21T04:46:05;8.75;;;5.20;;
67130;SDS011;54051;53.464;49.532;2022-08-21T04:48:31;8.25;;;5.20;;
67130;SDS011;54051;53.464;49.532;2022-08-21T04:51:09;9.07;;;5.30;;
67130;SDS011;54051;53.464;49.532;2022-08-21T04:53:45;11.73;;;5.32;;
67130;SDS011;54051;53.464;49.532;2022-08-21T04:56:20;8.30;;;5.25;;
67130;SDS011;54051;53.464;49.532;2022-08-21T04:58:49;9.48;;;5.32;;
67130;SDS011;54051;53.464;49.532;2022-08-21T05:01:21;9.82;;;5.18;;
67130;SDS011;54051;53.464;49.532;2022-08-21T05:03:50;10.98;;;5.30;;
67130;SDS011;54051;53.464;49.532;2022-08-21T05:06:28;8.85;;;5.30;;
67130;SDS011;54051;53.464;49.532;2022-08-21T05:08:55;9.45;;;5.10;;
67130;SDS011;54051;53.464;49.532;2022-08-21T05:11:22;10.10;;;5.63;;
67130;SDS011;54051;53.464;49.532;2022-08-21T05:13:49;9.85;;;5.47;;
67130;SDS011;54051;53.464;49.532;2022-08-21T05:16:15;8.50;;;5.50;;
67130;SDS011;54051;53.464;49.532;2022-08-21T05:18:42;9.98;;;5.78;;
67130;SDS011;54051;53.464;49.532;2022-08-21T05:21:08;9.38;;;5.30;;
67130;SDS011;54051;53.464;49.532;2022-08-21T05:23:35;10.80;;;5.47;;
67130;SDS011;54051;53.464;49.532;2022-08-21T05:26:01;9.52;;;5.65;;
67130;SDS011;54051;53.464;49.532;2022-08-21T05:28:29;8.85;;;5.28;;
67130;SDS011;54051;53.464;49.532;2022-08-21T05:30:56;8.98;;;5.75;;
67130;SDS011;54051;53.464;49.532;2022-08-21T05:33:23;8.25;;;5.78;;
67130;SDS011;54051;53.464;49.532;2022-08-21T05:35:53;9.45;;;5.80;;
67130;SDS011;54051;53.464;49.532;2022-08-21T05:38:23;8.27;;;5.60;;
67130;SDS011;54051;53.464;49.532;2022-08-21T05:40:52;11.95;;;5.80;;
67130;SDS011;54051;53.464;49.532;2022-08-21T05:43:18;8.95;;;5.35;;
67130;SDS011;54051;53.464;49.532;2022-08-21T05:45:44;9.30;;;5.18;;
67130;SDS011;54051;53.464;49.532;2022-08-21T05:48:12;7.82;;;5.53;;
67130;SDS011;54051;53.464;49.532;2022-08-21T05:50:49;8.43;;;5.13;;
67130;SDS011;54051;53.464;49.532;2022-08-21T05:53:17;9.02;;;5.28;;
67130;SDS011;54051;53.464;49.532;2022-08-21T05:55:44;7.30;;;5.53;;
67130;SDS011;54051;53.464;49.532;2022-08-21T05:58:11;7.70;;;5.30;;
67130;SDS011;54051;53.464;49.532;2022-08-21T06:00:38;9.25;;;5.47;;
67130;SDS011;54051;53.464;49.532;2022-08-21T06:03:04;9.15;;;5.47;;
67130;SDS011;54051;53.464;49.532;2022-08-21T06:05:36;9.10;;;5.20;;
67130;SDS011;54051;53.464;49.532;2022-08-21T06:08:03;8.10;;;5.43;;
67130;SDS011;54051;53.464;49.532;2022-08-21T06:10:29;8.82;;;5.28;;
67130;SDS011;54051;53.464;49.532;2022-08-21T06:12:58;8.68;;;5.40;;
67130;SDS011;54051;53.464;49.532;2022-08-21T06:15:27;7.00;;;5.30;;
67130;SDS011;54051;53.464;49.532;2022-08-21T06:17:53;11.70;;;5.68;;
67130;SDS011;54051;53.464;49.532;2022-08-21T06:20:19;11.68;;;5.70;;
67130;SDS011;54051;53.464;49.532;2022-08-21T06:22:46;9.25;;;5.55;;
67130;SDS011;54051;53.464;49.532;2022-08-21T06:25:12;9.70;;;5.47;;
67130;SDS011;54051;53.464;49.532;2022-08-21T06:27:38;8.13;;;5.43;;
67130;SDS011;54051;53.464;49.532;2022-08-21T06:30:05;9.52;;;5.78;;
67130;SDS011;54051;53.464;49.532;2022-08-21T06:32:31;10.60;;;5.70;;
67130;SDS011;54051;53.464;49.532;2022-08-21T06:34:57;10.00;;;5.50;;
67130;SDS011;54051;53.464;49.532;2022-08-21T06:37:23;7.32;;;5.22;;
67130;SDS011;54051;53.464;49.532;2022-08-21T06:39:49;8.27;;;5.70;;
67130;SDS011;54051;53.464;49.532;2022-08-21T06:42:16;7.63;;;5.32;;
67130;SDS011;54051;53.464;49.532;2022-08-21T06:44:42;6.80;;;5.28;;
67130;SDS011;54051;53.464;49.532;2022-08-21T06:47:09;8.68;;;5.22;;
67130;SDS011;54051;53.464;49.532;2022-08-21T06:49:36;8.95;;;5.30;;
67130;SDS011;54051;53.464;49.532;2022-08-21T06:52:02;8.40;;;5.60;;
67130;SDS011;54051;53.464;49.532;2022-08-21T06:54:29;8.85;;;5.45;;
67130;SDS011;54051;53.464;49.532;2022-08-21T06:56:55;7.30;;;5.32;;
67130;SDS011;54051;53.464;49.532;2022-08-21T06:59:21;9.25;;;5.32;;
67130;SDS011;54051;53.464;49.532;2022-08-21T07:01:47;8.75;;;5.35;;
67130;SDS011;54051;53.464;49.532;2022-08-21T07:04:13;7.90;;;5.47;;
67130;SDS011;54051;53.464;49.532;2022-08-21T07:06:39;7.25;;;5.22;;
67130;SDS011;54051;53.464;49.532;2022-08-21T07:09:05;11.80;;;5.90;;
67130;SDS011;54051;53.464;49.532;2022-08-21T07:11:31;11.68;;;5.60;;
67130;SDS011;54051;53.464;49.532;2022-08-21T07:13:57;9.32;;;5.32;;
67130;SDS011;54051;53.464;49.532;2022-08-21T07:16:23;10.10;;;5.38;;
67130;SDS011;54051;53.464;49.532;2022-08-21T07:18:49;6.70;;;5.15;;
67130;SDS011;54051;53.464;49.532;2022-08-21T07:21:16;7.72;;;5.40;;
67130;SDS011;54051;53.464;49.532;2022-08-21T07:23:44;9.18;;;5.45;;
67130;SDS011;54051;53.464;49.532;2022-08-21T07:26:14;9.65;;;5.25;;
67130;SDS011;54051;53.464;49.532;2022-08-21T07:28:42;7.72;;;5.35;;
67130;SDS011;54051;53.464;49.532;2022-08-21T07:31:08;10.95;;;5.70;;
67130;SDS011;54051;53.464;49.532;2022-08-21T07:33:39;7.03;;;5.50;;
67130;SDS011;54051;53.464;49.532;2022-08-21T07:36:06;10.27;;;5.25;;
67130;SDS011;54051;53.464;49.532;2022-08-21T07:38:33;7.72;;;5.85;;
67130;SDS011;54051;53.464;49.532;2022-08-21T07:41:00;7.10;;;5.45;;
67130;SDS011;54051;53.464;49.532;2022-08-21T07:43:27;7.90;;;5.40;;
67130;SDS011;54051;53.464;49.532;2022-08-21T07:45:54;9.57;;;5.40;;
67130;SDS011;54051;53.464;49.532;2022-08-21T07:48:21;8.70;;;5.47;;
67130;SDS011;54051;53.464;49.532;2022-08-21T07:50:48;9.02;;;5.53;;
67130;SDS011;54051;53.464;49.532;2022-08-21T07:53:15;7.78;;;5.75;;
67130;SDS011;54051;53.464;49.532;2022-08-21T07:55:41;7.57;;;5.40;;
67130;SDS011;54051;53.464;49.532;2022-08-21T07:58:07;7.82;;;5.20;;
67130;SDS011;54051;53.464;49.532;2022-08-21T08:00:33;9.07;;;5.25;;
67130;SDS011;54051;53.464;49.532;2022-08-21T08:03:00;8.65;;;5.40;;
67130;SDS011;54051;53.464;49.532;2022-08-21T08:05:27;8.35;;;5.25;;
67130;SDS011;54051;53.464;49.532;2022-08-21T08:07:54;9.55;;;5.25;;
67130;SDS011;54051;53.464;49.532;2022-08-21T08:10:21;7.22;;;5.30;;
67130;SDS011;54051;53.464;49.532;2022-08-21T08:12:48;7.80;;;5.43;;
67130;SDS011;54051;53.464;49.532;2022-08-21T08:15:19;10.30;;;5.50;;
67130;SDS011;54051;53.464;49.532;2022-08-21T08:17:47;7.75;;;5.30;;
67130;SDS011;54051;53.464;49.532;2022-08-21T08:20:14;7.20;;;5.45;;
67130;SDS011;54051;53.464;49.532;2022-08-21T08:22:42;6.78;;;5.32;;
67130;SDS011;54051;53.464;49.532;2022-08-21T08:25:08;9.18;;;5.80;;
67130;SDS011;54051;53.464;49.532;2022-08-21T08:27:36;9.57;;;5.85;;
67130;SDS011;54051;53.464;49.532;2022-08-21T08:30:03;7.63;;;5.20;;
67130;SDS011;54051;53.464;49.532;2022-08-21T08:32:30;8.55;;;5.43;;
67130;SDS011;54051;53.464;49.532;2022-08-21T08:34:56;9.10;;;5.45;;
67130;SDS011;54051;53.464;49.532;2022-08-21T08:37:22;9.05;;;6.32;;
67130;SDS011;54051;53.464;49.532;2022-08-21T08:39:48;7.47;;;5.82;;
67130;SDS011;54051;53.464;49.532;2022-08-21T08:42:16;8.63;;;5.78;;
67130;SDS011;54051;53.464;49.532;2022-08-21T08:44:58;8.57;;;5.38;;
67130;SDS011;54051;53.464;49.532;2022-08-21T08:47:30;8.65;;;5.68;;
67130;SDS011;54051;53.464;49.532;2022-08-21T08:50:01;7.10;;;5.40;;
67130;SDS011;54051;53.464;49.532;2022-08-21T08:55:41;8.52;;;5.43;;
67130;SDS011;54051;53.464;49.532;2022-08-21T08:58:12;9.07;;;5.38;;
67130;SDS011;54051;53.464;49.532;2022-08-21T09:00:46;8.85;;;5.47;;
67130;SDS011;54051;53.464;49.532;2022-08-21T09:03:15;8.38;;;5.30;;
67130;SDS011;54051;53.464;49.532;2022-08-21T09:10:50;8.07;;;5.60;;
67130;SDS011;54051;53.464;49.532;2022-08-21T09:13:46;8.77;;;5.28;;
67130;SDS011;54051;53.464;49.532;2022-08-21T09:16:41;8.15;;;5.25;;
67130;SDS011;54051;53.464;49.532;2022-08-21T09:19:35;8.45;;;5.40;;
67130;SDS011;54051;53.464;49.532;2022-08-21T09:27:56;9.38;;;5.45;;
67130;SDS011;54051;53.464;49.532;2022-08-21T09:30:30;8.27;;;5.60;;
67130;SDS011;54051;53.464;49.532;2022-08-21T09:32:57;9.73;;;5.40;;
67130;SDS011;54051;53.464;49.532;2022-08-21T09:35:24;7.57;;;5.30;;
67130;SDS011;54051;53.464;49.532;2022-08-21T09:38:01;9.40;;;5.13;;
67130;SDS011;54051;53.464;49.532;2022-08-21T09:43:16;7.53;;;5.30;;
67130;SDS011;54051;53.464;49.532;2022-08-21T09:45:45;9.95;;;5.30;;
67130;SDS011;54051;53.464;49.532;2022-08-21T09:48:14;7.30;;;5.50;;
67130;SDS011;54051;53.464;49.532;2022-08-21T09:50:45;9.07;;;5.78;;
67130;SDS011;54051;53.464;49.532;2022-08-21T09:53:20;8.30;;;5.72;;
67130;SDS011;54051;53.464;49.532;2022-08-21T09:55:53;8.40;;;5.35;;
67130;SDS011;54051;53.464;49.532;2022-08-21T09:58:41;7.90;;;4.93;;
67130;SDS011;54051;53.464;49.532;2022-08-21T10:01:17;8.48;;;5.22;;
67130;SDS011;54051;53.464;49.532;2022-08-21T10:03:46;7.47;;;5.22;;
67130;SDS011;54051;53.464;49.532;2022-08-21T10:06:23;8.60;;;5.57;;
67130;SDS011;54051;53.464;49.532;2022-08-21T10:09:02;10.13;;;5.57;;
67130;SDS011;54051;53.464;49.532;2022-08-21T10:11:33;9.43;;;5.32;;
67130;SDS011;54051;53.464;49.532;2022-08-21T10:14:08;8.40;;;5.65;;
67130;SDS011;54051;53.464;49.532;2022-08-21T10:19:45;10.75;;;5.03;;
67130;SDS011;54051;53.464;49.532;2022-08-21T10:25:17;10.82;;;5.60;;
67130;SDS011;54051;53.464;49.532;2022-08-21T10:27:55;9.20;;;5.45;;
67130;SDS011;54051;53.464;49.532;2022-08-21T10:36:09;7.60;;;5.40;;
67130;SDS011;54051;53.464;49.532;2022-08-21T10:38:52;7.43;;;5.05;;
67130;SDS011;54051;53.464;49.532;2022-08-21T10:44:28;9.10;;;5.18;;
67130;SDS011;54051;53.464;49.532;2022-08-21T10:47:08;10.90;;;6.38;;
67130;SDS011;54051;53.464;49.532;2022-08-21T10:52:15;8.57;;;5.10;;
67130;SDS011;54051;53.464;49.532;2022-08-21T10:55:09;7.18;;;4.80;;
67130;SDS011;54051;53.464;49.532;2022-08-21T10:57:46;6.82;;;4.85;;
67130;SDS011;54051;53.464;49.532;2022-08-21T11:05:54;7.78;;;4.68;;
67130;SDS011;54051;53.464;49.532;2022-08-21T11:08:29;6.60;;;4.90;;
67130;SDS011;54051;53.464;49.532;2022-08-21T11:11:12;7.57;;;4.97;;
67130;SDS011;54051;53.464;49.532;2022-08-21T11:13:45;7.75;;;4.90;;
67130;SDS011;54051;53.464;49.532;2022-08-21T11:16:23;6.97;;;5.00;;
67130;SDS011;54051;53.464;49.532;2022-08-21T11:22:17;7.88;;;5.40;;
67130;SDS011;54051;53.464;49.532;2022-08-21T11:25:06;8.32;;;5.10;;
67130;SDS011;54051;53.464;49.532;2022-08-21T11:30:11;8.23;;;5.20;;
67130;SDS011;54051;53.464;49.532;2022-08-21T11:35:21;8.63;;;5.03;;
67130;SDS011;54051;53.464;49.532;2022-08-21T11:38:06;7.93;;;4.97;;
67130;SDS011;54051;53.464;49.532;2022-08-21T11:43:47;8.00;;;4.90;;
67130;SDS011;54051;53.464;49.532;2022-08-21T11:49:21;7.68;;;4.85;;
67130;SDS011;54051;53.464;49.532;2022-08-21T11:52:22;6.72;;;4.70;;
67130;SDS011;54051;53.464;49.532;2022-08-21T11:57:39;8.30;;;4.90;;
67130;SDS011;54051;53.464;49.532;2022-08-21T12:00:17;7.28;;;4.80;;
67130;SDS011;54051;53.464;49.532;2022-08-21T12:02:50;7.43;;;5.10;;
67130;SDS011;54051;53.464;49.532;2022-08-21T12:05:27;7.78;;;5.38;;
67130;SDS011;54051;53.464;49.532;2022-08-21T12:08:06;7.95;;;5.32;;
67130;SDS011;54051;53.464;49.532;2022-08-21T12:10:39;8.23;;;5.10;;
67130;SDS011;54051;53.464;49.532;2022-08-21T12:13:20;7.82;;;4.80;;
67130;SDS011;54051;53.464;49.532;2022-08-21T12:15:52;7.17;;;4.77;;
67130;SDS011;54051;53.464;49.532;2022-08-21T12:18:21;7.55;;;4.40;;
67130;SDS011;54051;53.464;49.532;2022-08-21T12:20:57;7.43;;;4.80;;
67130;SDS011;54051;53.464;49.532;2022-08-21T12:23:30;6.72;;;4.80;;
67130;SDS011;54051;53.464;49.532;2022-08-21T12:26:03;7.38;;;4.40;;
67130;SDS011;54051;53.464;49.532;2022-08-21T12:28:39;7.35;;;4.68;;
67130;SDS011;54051;53.464;49.532;2022-08-21T12:31:16;8.35;;;4.90;;
67130;SDS011;54051;53.464;49.532;2022-08-21T12:33:58;8.30;;;4.90;;
67130;SDS011;54051;53.464;49.532;2022-08-21T12:36:35;8.38;;;4.72;;
67130;SDS011;54051;53.464;49.532;2022-08-21T12:39:15;7.80;;;4.68;;
67130;SDS011;54051;53.464;49.532;2022-08-21T12:41:47;7.18;;;4.82;;
67130;SDS011;54051;53.464;49.532;2022-08-21T12:44:15;7.13;;;4.80;;
67130;SDS011;54051;53.464;49.532;2022-08-21T12:46:56;8.13;;;5.10;;
67130;SDS011;54051;53.464;49.532;2022-08-21T12:49:34;7.43;;;4.95;;
67130;SDS011;54051;53.464;49.532;2022-08-21T12:54:54;8.05;;;5.15;;
67130;SDS011;54051;53.464;49.532;2022-08-21T12:57:22;7.97;;;5.30;;
67130;SDS011;54051;53.464;49.532;2022-08-21T12:59:53;8.70;;;5.32;;
67130;SDS011;54051;53.464;49.532;2022-08-21T13:02:26;9.48;;;5.82;;
67130;SDS011;54051;53.464;49.532;2022-08-21T13:04:56;11.02;;;6.55;;
67130;SDS011;54051;53.464;49.532;2022-08-21T13:07:25;9.80;;;6.28;;
67130;SDS011;54051;53.464;49.532;2022-08-21T13:10:01;9.77;;;6.30;;
67130;SDS011;54051;53.464;49.532;2022-08-21T13:12:28;8.90;;;6.00;;
67130;SDS011;54051;53.464;49.532;2022-08-21T13:14:56;10.02;;;6.43;;
67130;SDS011;54051;53.464;49.532;2022-08-21T13:17:25;9.38;;;6.03;;
67130;SDS011;54051;53.464;49.532;2022-08-21T13:22:27;9.18;;;5.93;;
67130;SDS011;54051;53.464;49.532;2022-08-21T13:24:53;9.80;;;6.05;;
67130;SDS011;54051;53.464;49.532;2022-08-21T13:32:30;8.00;;;5.53;;
67130;SDS011;54051;53.464;49.532;2022-08-21T13:34:59;8.32;;;5.80;;
67130;SDS011;54051;53.464;49.532;2022-08-21T13:37:34;12.88;;;5.82;;
67130;SDS011;54051;53.464;49.532;2022-08-21T13:40:01;9.20;;;5.95;;
67130;SDS011;54051;53.464;49.532;2022-08-21T13:42:27;12.07;;;6.57;;
67130;SDS011;54051;53.464;49.532;2022-08-21T13:44:53;10.02;;;6.53;;
67130;SDS011;54051;53.464;49.532;2022-08-21T13:49:46;8.38;;;6.00;;
67130;SDS011;54051;53.464;49.532;2022-08-21T13:52:19;9.45;;;6.10;;
67130;SDS011;54051;53.464;49.532;2022-08-21T13:55:08;9.27;;;5.80;;
67130;SDS011;54051;53.464;49.532;2022-08-21T13:57:37;10.75;;;5.82;;
67130;SDS011;54051;53.464;49.532;2022-08-21T14:03:06;9.30;;;6.40;;
67130;SDS011;54051;53.464;49.532;2022-08-21T14:05:36;9.20;;;5.82;;
67130;SDS011;54051;53.464;49.532;2022-08-21T14:08:18;9.77;;;5.93;;
67130;SDS011;54051;53.464;49.532;2022-08-21T14:11:02;11.65;;;7.07;;
67130;SDS011;54051;53.464;49.532;2022-08-21T14:13:34;11.52;;;6.50;;
67130;SDS011;54051;53.464;49.532;2022-08-21T14:16:15;11.75;;;6.47;;
67130;SDS011;54051;53.464;49.532;2022-08-21T14:21:30;9.80;;;6.85;;
67130;SDS011;54051;53.464;49.532;2022-08-21T14:26:55;10.20;;;6.90;;
67130;SDS011;54051;53.464;49.532;2022-08-21T14:29:23;9.07;;;6.55;;
67130;SDS011;54051;53.464;49.532;2022-08-21T14:31:53;10.60;;;7.45;;
67130;SDS011;54051;53.464;49.532;2022-08-21T14:34:24;10.23;;;7.47;;
67130;SDS011;54051;53.464;49.532;2022-08-21T14:36:52;10.98;;;7.10;;
67130;SDS011;54051;53.464;49.532;2022-08-21T14:39:19;10.70;;;7.00;;
67130;SDS011;54051;53.464;49.532;2022-08-21T14:41:45;12.80;;;7.60;;
67130;SDS011;54051;53.464;49.532;2022-08-21T14:44:14;10.13;;;6.97;;
67130;SDS011;54051;53.464;49.532;2022-08-21T14:46:42;10.32;;;7.00;;
67130;SDS011;54051;53.464;49.532;2022-08-21T14:49:08;11.55;;;6.93;;
67130;SDS011;54051;53.464;49.532;2022-08-21T14:51:34;11.90;;;7.03;;
67130;SDS011;54051;53.464;49.532;2022-08-21T14:54:00;11.38;;;7.43;;
67130;SDS011;54051;53.464;49.532;2022-08-21T14:56:26;11.27;;;7.20;;
67130;SDS011;54051;53.464;49.532;2022-08-21T14:58:52;10.35;;;7.53;;
67130;SDS011;54051;53.464;49.532;2022-08-21T15:01:21;11.77;;;7.70;;
67130;SDS011;54051;53.464;49.532;2022-08-21T15:03:48;12.07;;;7.93;;
67130;SDS011;54051;53.464;49.532;2022-08-21T15:06:15;10.88;;;7.35;;
67130;SDS011;54051;53.464;49.532;2022-08-21T15:08:43;12.85;;;8.02;;
67130;SDS011;54051;53.464;49.532;2022-08-21T15:13:38;14.00;;;8.05;;
67130;SDS011;54051;53.464;49.532;2022-08-21T15:16:04;10.68;;;7.78;;
67130;SDS011;54051;53.464;49.532;2022-08-21T15:20:56;13.65;;;8.32;;
67130;SDS011;54051;53.464;49.532;2022-08-21T15:25:48;13.25;;;7.88;;
67130;SDS011;54051;53.464;49.532;2022-08-21T15:28:15;12.80;;;8.23;;
67130;SDS011;54051;53.464;49.532;2022-08-21T15:30:44;12.73;;;8.13;;
67130;SDS011;54051;53.464;49.532;2022-08-21T15:33:10;13.30;;;8.23;;
67130;SDS011;54051;53.464;49.532;2022-08-21T15:35:37;12.32;;;8.25;;
67130;SDS011;54051;53.464;49.532;2022-08-21T15:38:05;12.73;;;8.35;;
67130;SDS011;54051;53.464;49.532;2022-08-21T15:40:31;16.05;;;8.52;;
67130;SDS011;54051;53.464;49.532;2022-08-21T15:43:00;14.15;;;8.50;;
67130;SDS011;54051;53.464;49.532;2022-08-21T15:45:28;15.55;;;9.10;;
67130;SDS011;54051;53.464;49.532;2022-08-21T15:47:55;13.48;;;9.02;;
67130;SDS011;54051;53.464;49.532;2022-08-21T15:50:22;13.60;;;8.60;;
67130;SDS011;54051;53.464;49.532;2022-08-21T15:52:49;14.90;;;8.50;;
67130;SDS011;54051;53.464;49.532;2022-08-21T15:55:15;14.43;;;9.75;;
67130;SDS011;54051;53.464;49.532;2022-08-21T15:57:43;17.27;;;10.63;;
67130;SDS011;54051;53.464;49.532;2022-08-21T16:00:13;18.17;;;12.15;;
67130;SDS011;54051;53.464;49.532;2022-08-21T16:02:46;20.40;;;12.13;;
67130;SDS011;54051;53.464;49.532;2022-08-21T16:05:14;20.40;;;11.95;;
67130;SDS011;54051;53.464;49.532;2022-08-21T16:07:45;16.70;;;11.05;;
67130;SDS011;54051;53.464;49.532;2022-08-21T16:10:12;16.52;;;10.68;;
67130;SDS011;54051;53.464;49.532;2022-08-21T16:12:44;19.05;;;11.00;;
67130;SDS011;54051;53.464;49.532;2022-08-21T16:15:14;20.40;;;11.02;;